createdAt,value
2018-03-16T00:00:36.801Z,96233.51
2018-03-16T00:01:40.268Z,96238.40
2018-03-16T00:02:43.696Z,96236.34
2018-03-16T00:03:47.524Z,96242.89
2018-03-16T00:04:50.844Z,96237.30
2018-03-16T00:05:54.312Z,96242.67
2018-03-16T00:06:57.654Z,96240.17
2018-03-16T00:08:00.997Z,96243.56
2018-03-16T00:09:05.986Z,96240.41
2018-03-16T00:10:09.834Z,96252.84
2018-03-16T00:11:13.334Z,96245.83
2018-03-16T00:12:16.781Z,96247.02
2018-03-16T00:13:20.141Z,96249.20
2018-03-16T00:14:23.666Z,96248.06
2018-03-16T00:15:27.183Z,96251.53
2018-03-16T00:16:30.856Z,96243.77
2018-03-16T00:17:34.288Z,96245.28
2018-03-16T00:18:37.850Z,96250.94
2018-03-16T00:19:41.168Z,96244.15
2018-03-16T00:20:44.653Z,96249.30
2018-03-16T00:21:48.168Z,96247.42
2018-03-16T00:22:51.516Z,96246.59
2018-03-16T00:23:55.001Z,96251.11
2018-03-16T00:24:58.505Z,96248.02
2018-03-16T00:26:01.908Z,96251.03
2018-03-16T00:27:05.328Z,96252.23
2018-03-16T00:28:09.114Z,96243.11
2018-03-16T00:29:12.599Z,96247.94
2018-03-16T00:30:15.920Z,96245.73
2018-03-16T00:31:19.419Z,96242.15
2018-03-16T00:32:22.886Z,96238.94
2018-03-16T00:33:26.247Z,96243.12
2018-03-16T00:34:29.916Z,96250.33
2018-03-16T00:35:33.398Z,96245.09
2018-03-16T00:36:36.912Z,96242.70
2018-03-16T00:37:40.608Z,96246.55
2018-03-16T00:38:44.108Z,96249.40
2018-03-16T00:39:47.616Z,96249.28
2018-03-16T00:40:51.625Z,96245.48
2018-03-16T00:41:55.331Z,96241.94
2018-03-16T00:42:58.781Z,96244.62
2018-03-16T00:44:02.191Z,96240.28
2018-03-16T00:45:05.839Z,96246.08
2018-03-16T00:46:09.371Z,96245.38
2018-03-16T00:47:13.356Z,96243.43
2018-03-16T00:48:16.824Z,96240.49
2018-03-16T00:49:20.505Z,96240.11
2018-03-16T00:50:23.882Z,96239.67
2018-03-16T00:51:27.239Z,96239.20
2018-03-16T00:52:30.767Z,96240.39
2018-03-16T00:53:34.358Z,96235.00
2018-03-16T00:54:37.819Z,96234.84
2018-03-16T00:55:41.392Z,96234.56
2018-03-16T00:56:44.846Z,96245.69
2018-03-16T00:57:48.512Z,96238.95
2018-03-16T00:58:51.977Z,96237.34
2018-03-16T00:59:55.916Z,96237.11
2018-03-16T01:00:59.463Z,96242.60
2018-03-16T01:02:02.852Z,96243.64
2018-03-16T01:03:06.485Z,96247.08
2018-03-16T01:04:09.950Z,96247.08
2018-03-16T01:05:13.556Z,96254.40
2018-03-16T01:06:17.482Z,96252.98
2018-03-16T01:07:21.083Z,96256.36
2018-03-16T01:08:24.648Z,96250.06
2018-03-16T01:09:28.208Z,96252.11
2018-03-16T01:10:31.662Z,96247.06
2018-03-16T01:11:35.506Z,96246.69
2018-03-16T01:12:39.513Z,96255.05
2018-03-16T01:13:43.001Z,96243.75
2018-03-16T01:14:46.741Z,96245.99
2018-03-16T01:15:50.359Z,96247.35
2018-03-16T01:16:53.846Z,96250.77
2018-03-16T01:17:57.442Z,96247.39
2018-03-16T01:19:01.660Z,96242.60
2018-03-16T01:20:05.234Z,96245.42
2018-03-16T01:21:09.116Z,96237.34
2018-03-16T01:22:12.545Z,96245.36
2018-03-16T01:23:16.115Z,96243.13
2018-03-16T01:24:19.614Z,96242.09
2018-03-16T01:25:23.611Z,96237.22
2018-03-16T01:26:27.114Z,96236.18
2018-03-16T01:27:30.750Z,96243.47
2018-03-16T01:28:34.187Z,96241.35
2018-03-16T01:29:37.737Z,96244.00
2018-03-16T01:30:41.478Z,96235.77
2018-03-16T01:31:45.524Z,96245.16
2018-03-16T01:32:49.276Z,96243.64
2018-03-16T01:33:52.937Z,96244.94
2018-03-16T01:34:56.477Z,96245.31
2018-03-16T01:36:00.336Z,96244.94
2018-03-16T01:37:03.954Z,96250.20
2018-03-16T01:38:08.046Z,96243.36
2018-03-16T01:39:11.509Z,96241.63
2018-03-16T01:40:15.181Z,96243.86
2018-03-16T01:41:18.795Z,96240.06
2018-03-16T01:42:22.409Z,96240.98
2018-03-16T01:43:26.290Z,96243.76
2018-03-16T01:44:30.325Z,96245.99
2018-03-16T01:45:33.831Z,96240.39
2018-03-16T01:46:37.532Z,96243.83
2018-03-16T01:47:41.215Z,96245.62
2018-03-16T01:48:44.825Z,96248.17
2018-03-16T01:49:48.258Z,96249.59
2018-03-16T01:50:52.341Z,96248.92
2018-03-16T01:51:56.017Z,96245.23
2018-03-16T01:52:59.561Z,96241.91
2018-03-16T01:54:02.995Z,96252.17
2018-03-16T01:55:06.466Z,96246.12
2018-03-16T01:56:10.237Z,96250.23
2018-03-16T01:57:14.266Z,96246.86
2018-03-16T01:58:17.795Z,96245.22
2018-03-16T01:59:21.296Z,96250.49
2018-03-16T02:00:24.882Z,96253.15
2018-03-16T02:01:29.295Z,96251.64
2018-03-16T02:02:32.779Z,96246.75
2018-03-16T02:03:36.652Z,96245.50
2018-03-16T02:04:40.457Z,96251.25
2018-03-16T02:05:44.019Z,96244.23
2018-03-16T02:06:47.767Z,96245.38
2018-03-16T02:07:51.305Z,96244.50
2018-03-16T02:08:54.668Z,96244.81
2018-03-16T02:09:58.748Z,96253.63
2018-03-16T02:11:02.402Z,96249.34
2018-03-16T02:12:06.043Z,96246.30
2018-03-16T02:13:09.639Z,96250.97
2018-03-16T02:14:13.202Z,96250.59
2018-03-16T02:15:16.843Z,96250.75
2018-03-16T02:16:20.721Z,96260.09
2018-03-16T02:17:24.764Z,96255.86
2018-03-16T02:18:28.316Z,96257.70
2018-03-16T02:19:31.841Z,96253.48
2018-03-16T02:20:35.524Z,96257.00
2018-03-16T02:21:39.226Z,96255.16
2018-03-16T02:22:43.259Z,96255.59
2018-03-16T02:23:46.903Z,96256.18
2018-03-16T02:24:50.334Z,96250.94
2018-03-16T02:25:53.763Z,96246.86
2018-03-16T02:26:57.332Z,96242.52
2018-03-16T02:28:00.965Z,96251.64
2018-03-16T02:29:04.391Z,96250.28
2018-03-16T02:30:07.945Z,96249.39
2018-03-16T02:31:11.469Z,96254.50
2018-03-16T02:32:15.015Z,96250.94
2018-03-16T02:33:18.565Z,96248.44
2018-03-16T02:34:22.518Z,96255.60
2018-03-16T02:35:25.924Z,96257.70
2018-03-16T02:36:29.531Z,96254.40
2018-03-16T02:37:32.763Z,96255.42
2018-03-16T02:38:36.355Z,96260.52
2018-03-16T02:39:39.916Z,96254.02
2018-03-16T02:40:43.847Z,96259.54
2018-03-16T02:41:47.759Z,96253.73
2018-03-16T02:42:51.249Z,96254.06
2018-03-16T02:43:54.728Z,96256.36
2018-03-16T02:44:58.235Z,96257.02
2018-03-16T02:46:01.462Z,96253.63
2018-03-16T02:47:05.323Z,96254.45
2018-03-16T02:48:08.913Z,96262.33
2018-03-16T02:49:12.602Z,96257.28
2018-03-16T02:50:15.960Z,96257.76
2018-03-16T02:51:19.464Z,96252.92
2018-03-16T02:52:23.118Z,96261.89
2018-03-16T02:53:27.061Z,96258.95
2018-03-16T02:54:30.776Z,96255.81
2018-03-16T02:55:34.173Z,96255.48
2018-03-16T02:56:37.987Z,96258.61
2018-03-16T02:57:41.590Z,96259.44
2018-03-16T02:58:45.076Z,96254.42
2018-03-16T02:59:48.871Z,96259.73
2018-03-16T03:00:52.468Z,96256.27
2018-03-16T03:01:56.430Z,96257.72
2018-03-16T03:03:00.135Z,96255.00
2018-03-16T03:04:03.348Z,96258.77
2018-03-16T03:05:06.991Z,96258.44
2018-03-16T03:06:10.762Z,96263.11
2018-03-16T03:07:14.135Z,96256.64
2018-03-16T03:08:17.510Z,96256.36
2018-03-16T03:09:20.793Z,96257.73
2018-03-16T03:10:24.201Z,96261.84
2018-03-16T03:11:27.612Z,96260.04
2018-03-16T03:12:31.429Z,96255.69
2018-03-16T03:13:34.748Z,96255.47
2018-03-16T03:14:38.259Z,96259.16
2018-03-16T03:15:41.600Z,96257.20
2018-03-16T03:16:44.816Z,96255.22
2018-03-16T03:17:48.389Z,96259.92
2018-03-16T03:18:52.180Z,96261.88
2018-03-16T03:19:55.422Z,96257.86
2018-03-16T03:20:58.792Z,96264.88
2018-03-16T03:22:02.295Z,96264.81
2018-03-16T03:23:05.754Z,96267.31
2018-03-16T03:24:09.163Z,96268.67
2018-03-16T03:25:12.874Z,96264.21
2018-03-16T03:26:16.143Z,96266.55
2018-03-16T03:27:19.566Z,96269.64
2018-03-16T03:28:22.688Z,96269.64
2018-03-16T03:29:26.400Z,96271.16
2018-03-16T03:30:29.730Z,96269.17
2018-03-16T03:31:33.526Z,96278.62
2018-03-16T03:32:36.829Z,96272.52
2018-03-16T03:33:40.167Z,96277.41
2018-03-16T03:34:43.472Z,96277.63
2018-03-16T03:35:47.076Z,96277.48
2018-03-16T03:36:50.560Z,96279.88
2018-03-16T03:37:54.117Z,96277.53
2018-03-16T03:38:57.296Z,96282.33
2018-03-16T03:40:00.404Z,96276.64
2018-03-16T03:41:03.490Z,96277.67
2018-03-16T03:42:06.727Z,96276.49
2018-03-16T03:43:10.765Z,96276.42
2018-03-16T03:44:15.192Z,96279.64
2018-03-16T03:45:18.543Z,96283.66
2018-03-16T03:46:21.777Z,96277.09
2018-03-16T03:47:25.031Z,96286.53
2018-03-16T03:48:28.314Z,96281.37
2018-03-16T03:49:31.705Z,96290.21
2018-03-16T03:50:34.956Z,96287.44
2018-03-16T03:51:38.367Z,96282.98
2018-03-16T03:52:41.703Z,96289.71
2018-03-16T03:53:45.135Z,96290.38
2018-03-16T03:54:48.584Z,96289.19
2018-03-16T03:55:52.535Z,96293.78
2018-03-16T03:56:56.216Z,96291.80
2018-03-16T03:57:59.870Z,96294.08
2018-03-16T03:59:03.254Z,96293.36
2018-03-16T04:00:06.817Z,96290.20
2018-03-16T04:01:10.273Z,96292.22
2018-03-16T04:02:14.005Z,96292.81
2018-03-16T04:03:17.530Z,96292.75
2018-03-16T04:04:20.825Z,96292.88
2018-03-16T04:05:24.204Z,96297.76
2018-03-16T04:06:27.542Z,96294.19
2018-03-16T04:07:30.897Z,96301.09
2018-03-16T04:08:34.387Z,96297.77
2018-03-16T04:09:37.496Z,96294.41
2018-03-16T04:10:40.664Z,96299.67
2018-03-16T04:11:44.171Z,96298.64
2018-03-16T04:12:47.382Z,96297.89
2018-03-16T04:13:50.845Z,96284.73
2018-03-16T04:14:54.279Z,96297.59
2018-03-16T04:15:57.567Z,96298.75
2018-03-16T04:17:00.826Z,96299.02
2018-03-16T04:18:04.251Z,96301.21
2018-03-16T04:19:07.657Z,96301.27
2018-03-16T04:20:10.887Z,96297.30
2018-03-16T04:21:14.531Z,96303.21
2018-03-16T04:22:18.042Z,96301.73
2018-03-16T04:23:21.376Z,96303.80
2018-03-16T04:24:24.844Z,96305.37
2018-03-16T04:25:28.335Z,96308.84
2018-03-16T04:26:31.614Z,96300.23
2018-03-16T04:27:35.402Z,96306.58
2018-03-16T04:28:38.672Z,96309.34
2018-03-16T04:29:41.902Z,96309.59
2018-03-16T04:30:45.238Z,96318.61
2018-03-16T04:31:48.332Z,96312.65
2018-03-16T04:32:51.429Z,96314.17
2018-03-16T04:33:55.000Z,96312.59
2018-03-16T04:34:58.164Z,96319.54
2018-03-16T04:36:01.440Z,96316.44
2018-03-16T04:37:05.061Z,96320.68
2018-03-16T04:38:08.505Z,96316.06
2018-03-16T04:39:11.955Z,96311.39
2018-03-16T04:40:15.727Z,96311.70
2018-03-16T04:41:18.996Z,96317.02
2018-03-16T04:42:22.262Z,96324.95
2018-03-16T04:43:25.486Z,96315.45
2018-03-16T04:44:28.665Z,96315.28
2018-03-16T04:45:31.958Z,96317.02
2018-03-16T04:46:35.659Z,96312.63
2018-03-16T04:47:39.025Z,96319.86
2018-03-16T04:48:42.492Z,96317.91
2018-03-16T04:49:45.878Z,96321.44
2018-03-16T04:50:49.426Z,96323.19
2018-03-16T04:51:52.890Z,96323.94
2018-03-16T04:52:57.102Z,96321.06
2018-03-16T04:54:00.281Z,96324.98
2018-03-16T04:55:03.862Z,96323.12
2018-03-16T04:56:07.417Z,96321.16
2018-03-16T04:57:10.854Z,96327.05
2018-03-16T04:58:14.464Z,96330.47
2018-03-16T04:59:18.274Z,96326.07
2018-03-16T05:00:21.744Z,96327.86
2018-03-16T05:01:25.201Z,96331.27
2018-03-16T05:02:28.798Z,96331.27
2018-03-16T05:03:32.186Z,96329.09
2018-03-16T05:04:35.794Z,96333.16
2018-03-16T05:05:39.841Z,96331.42
2018-03-16T05:06:43.382Z,96336.00
2018-03-16T05:07:46.903Z,96331.11
2018-03-16T05:08:50.446Z,96327.95
2018-03-16T05:09:54.072Z,96332.70
2018-03-16T05:10:57.359Z,96327.05
2018-03-16T05:12:01.137Z,96328.56
2018-03-16T05:13:04.602Z,96328.94
2018-03-16T05:14:08.476Z,96326.45
2018-03-16T05:15:11.930Z,96331.12
2018-03-16T05:16:15.577Z,96326.51
2018-03-16T05:17:19.042Z,96328.11
2018-03-16T05:18:22.927Z,96328.47
2018-03-16T05:19:26.572Z,96329.38
2018-03-16T05:20:30.695Z,96336.11
2018-03-16T05:21:35.182Z,96327.59
2018-03-16T05:22:38.715Z,96331.66
2018-03-16T05:23:42.284Z,96333.08
2018-03-16T05:24:46.331Z,96333.08
2018-03-16T05:25:49.936Z,96327.05
2018-03-16T05:26:53.412Z,96334.00
2018-03-16T05:27:57.001Z,96333.94
2018-03-16T05:29:00.547Z,96334.91
2018-03-16T05:30:04.236Z,96337.25
2018-03-16T05:31:08.129Z,96331.88
2018-03-16T05:32:11.764Z,96338.34
2018-03-16T05:33:15.560Z,96344.69
2018-03-16T05:34:19.096Z,96343.55
2018-03-16T05:35:22.742Z,96339.47
2018-03-16T05:36:26.423Z,96347.23
2018-03-16T05:37:30.370Z,96347.84
2018-03-16T05:38:33.806Z,96343.00
2018-03-16T05:39:37.433Z,96346.76
2018-03-16T05:40:41.037Z,96342.91
2018-03-16T05:41:44.729Z,96344.70
2018-03-16T05:42:48.004Z,96343.56
2018-03-16T05:43:51.990Z,96342.36
2018-03-16T05:44:56.021Z,96346.16
2018-03-16T05:45:59.933Z,96342.41
2018-03-16T05:47:03.482Z,96354.91
2018-03-16T05:48:07.007Z,96347.52
2018-03-16T05:49:10.656Z,96348.55
2018-03-16T05:50:14.861Z,96354.20
2018-03-16T05:51:18.619Z,96350.02
2018-03-16T05:52:22.343Z,96348.67
2018-03-16T05:53:25.955Z,96346.55
2018-03-16T05:54:29.537Z,96346.39
2018-03-16T05:55:33.092Z,96348.28
2018-03-16T05:56:36.893Z,96350.02
2018-03-16T05:57:40.300Z,96343.62
2018-03-16T05:58:44.047Z,96346.33
2018-03-16T05:59:47.503Z,96344.81
2018-03-16T06:00:51.039Z,96346.33
2018-03-16T06:01:54.530Z,96343.78
2018-03-16T06:02:58.112Z,96346.11
2018-03-16T06:04:01.615Z,96346.44
2018-03-16T06:05:05.167Z,96349.03
2018-03-16T06:06:08.480Z,96348.59
2018-03-16T06:07:12.144Z,96351.69
2018-03-16T06:08:15.572Z,96345.88
2018-03-16T06:09:19.490Z,96346.32
2018-03-16T06:10:23.225Z,96351.05
2018-03-16T06:11:26.661Z,96354.30
2018-03-16T06:12:30.312Z,96349.63
2018-03-16T06:13:33.977Z,96350.94
2018-03-16T06:14:37.435Z,96348.44
2018-03-16T06:15:41.629Z,96353.43
2018-03-16T06:16:45.144Z,96350.87
2018-03-16T06:17:48.663Z,96350.28
2018-03-16T06:18:52.235Z,96356.37
2018-03-16T06:19:55.590Z,96359.14
2018-03-16T06:20:59.074Z,96358.00
2018-03-16T06:22:03.082Z,96358.98
2018-03-16T06:23:06.766Z,96359.08
2018-03-16T06:24:10.305Z,96363.70
2018-03-16T06:25:13.920Z,96364.89
2018-03-16T06:26:17.624Z,96364.95
2018-03-16T06:27:21.095Z,96366.53
2018-03-16T06:28:25.368Z,96367.50
2018-03-16T06:29:28.956Z,96370.28
2018-03-16T06:30:32.454Z,96372.02
2018-03-16T06:31:35.959Z,96370.02
2018-03-16T06:32:39.289Z,96377.62
2018-03-16T06:33:43.018Z,96376.89
2018-03-16T06:34:47.107Z,96371.89
2018-03-16T06:35:50.649Z,96377.86
2018-03-16T06:36:54.451Z,96376.12
2018-03-16T06:37:57.913Z,96377.62
2018-03-16T06:39:01.248Z,96372.95
2018-03-16T06:40:04.867Z,96375.66
2018-03-16T06:41:08.818Z,96380.71
2018-03-16T06:42:12.193Z,96384.73
2018-03-16T06:43:15.785Z,96378.31
2018-03-16T06:44:19.429Z,96380.00
2018-03-16T06:45:23.057Z,96383.64
2018-03-16T06:46:27.757Z,96383.52
2018-03-16T06:47:31.519Z,96389.06
2018-03-16T06:48:34.904Z,96390.42
2018-03-16T06:49:38.438Z,96382.65
2018-03-16T06:50:42.229Z,96391.56
2018-03-16T06:51:45.786Z,96393.20
2018-03-16T06:52:49.329Z,96395.11
2018-03-16T06:53:53.265Z,96399.88
2018-03-16T06:54:56.616Z,96399.66
2018-03-16T06:56:00.073Z,96401.19
2018-03-16T06:57:03.934Z,96399.23
2018-03-16T06:58:07.527Z,96399.45
2018-03-16T06:59:10.988Z,96403.14
2018-03-16T07:00:14.810Z,96397.11
2018-03-16T07:01:18.166Z,96399.39
2018-03-16T07:02:21.732Z,96399.55
2018-03-16T07:03:25.328Z,96406.28
2018-03-16T07:04:28.822Z,96402.91
2018-03-16T07:05:32.379Z,96404.11
2018-03-16T07:06:36.235Z,96408.34
2018-03-16T07:07:39.682Z,96398.45
2018-03-16T07:08:43.834Z,96401.30
2018-03-16T07:09:47.271Z,96403.05
2018-03-16T07:10:50.788Z,96411.19
2018-03-16T07:11:54.179Z,96406.73
2018-03-16T07:12:57.623Z,96407.96
2018-03-16T07:14:01.160Z,96411.41
2018-03-16T07:15:04.691Z,96406.90
2018-03-16T07:16:08.187Z,96406.46
2018-03-16T07:17:11.680Z,96412.00
2018-03-16T07:18:15.245Z,96411.78
2018-03-16T07:19:19.094Z,96406.13
2018-03-16T07:20:22.452Z,96411.56
2018-03-16T07:21:26.001Z,96414.28
2018-03-16T07:22:29.555Z,96414.06
2018-03-16T07:23:33.079Z,96419.49
2018-03-16T07:24:36.542Z,96413.68
2018-03-16T07:25:40.385Z,96416.23
2018-03-16T07:26:43.762Z,96418.03
2018-03-16T07:27:47.067Z,96417.48
2018-03-16T07:28:50.492Z,96421.19
2018-03-16T07:29:53.998Z,96420.80
2018-03-16T07:30:57.741Z,96423.41
2018-03-16T07:32:01.608Z,96419.81
2018-03-16T07:33:05.123Z,96423.72
2018-03-16T07:34:08.608Z,96424.10
2018-03-16T07:35:12.028Z,96427.81
2018-03-16T07:36:15.530Z,96429.06
2018-03-16T07:37:18.912Z,96426.06
2018-03-16T07:38:22.967Z,96431.98
2018-03-16T07:39:26.458Z,96428.83
2018-03-16T07:40:29.829Z,96433.25
2018-03-16T07:41:33.190Z,96431.45
2018-03-16T07:42:36.789Z,96437.81
2018-03-16T07:43:40.168Z,96432.22
2018-03-16T07:44:44.007Z,96432.59
2018-03-16T07:45:51.276Z,96436.45
2018-03-16T07:46:54.894Z,96433.90
2018-03-16T07:47:58.392Z,96437.16
2018-03-16T07:49:01.897Z,96436.56
2018-03-16T07:50:05.220Z,96438.30
2018-03-16T07:51:08.987Z,96441.02
2018-03-16T07:52:12.402Z,96444.11
2018-03-16T07:53:16.114Z,96446.01
2018-03-16T07:54:19.518Z,96442.25
2018-03-16T07:55:22.866Z,96445.19
2018-03-16T07:56:26.318Z,96447.37
2018-03-16T07:57:30.118Z,96451.28
2018-03-16T07:58:33.548Z,96452.32
2018-03-16T07:59:36.946Z,96447.38
2018-03-16T08:00:40.252Z,96446.63
2018-03-16T08:01:43.610Z,96451.67
2018-03-16T08:02:46.962Z,96452.98
2018-03-16T08:03:50.924Z,96450.56
2018-03-16T08:04:54.312Z,96453.41
2018-03-16T08:05:57.694Z,96453.58
2018-03-16T08:07:01.153Z,96454.12
2018-03-16T08:08:04.633Z,96449.22
2018-03-16T08:09:08.075Z,96451.72
2018-03-16T08:10:11.875Z,96448.47
2018-03-16T08:11:15.367Z,96453.28
2018-03-16T08:12:19.211Z,96455.89
2018-03-16T08:13:22.642Z,96454.09
2018-03-16T08:14:26.011Z,96459.27
2018-03-16T08:15:29.502Z,96450.58
2018-03-16T08:16:33.277Z,96461.60
2018-03-16T08:17:36.688Z,96460.95
2018-03-16T08:18:40.065Z,96463.14
2018-03-16T08:19:43.445Z,96463.25
2018-03-16T08:20:47.018Z,96461.67
2018-03-16T08:21:50.409Z,96464.55
2018-03-16T08:22:54.273Z,96459.05
2018-03-16T08:23:57.640Z,96468.29
2018-03-16T08:25:01.179Z,96462.86
2018-03-16T08:26:05.395Z,96465.89
2018-03-16T08:27:08.977Z,96462.52
2018-03-16T08:28:12.411Z,96471.05
2018-03-16T08:29:16.246Z,96466.83
2018-03-16T08:30:19.690Z,96475.85
2018-03-16T08:31:23.133Z,96470.58
2018-03-16T08:32:26.654Z,96472.64
2018-03-16T08:33:30.470Z,96476.88
2018-03-16T08:34:34.032Z,96477.41
2018-03-16T08:35:37.578Z,96479.00
2018-03-16T08:36:41.033Z,96474.05
2018-03-16T08:37:44.446Z,96477.75
2018-03-16T08:38:47.840Z,96480.25
2018-03-16T08:39:51.266Z,96478.73
2018-03-16T08:40:54.605Z,96478.73
2018-03-16T08:41:58.766Z,96486.28
2018-03-16T08:43:02.207Z,96481.28
2018-03-16T08:44:05.707Z,96481.34
2018-03-16T08:45:09.157Z,96479.83
2018-03-16T08:46:12.566Z,96474.98
2018-03-16T08:47:16.080Z,96481.19
2018-03-16T08:48:19.534Z,96476.12
2018-03-16T08:49:23.121Z,96478.08
2018-03-16T08:50:26.610Z,96481.19
2018-03-16T08:51:30.094Z,96481.02
2018-03-16T08:52:33.570Z,96484.02
2018-03-16T08:53:37.005Z,96484.78
2018-03-16T08:54:40.246Z,96483.36
2018-03-16T08:55:43.692Z,96482.33
2018-03-16T08:56:47.035Z,96484.01
2018-03-16T08:57:50.307Z,96483.56
2018-03-16T08:58:53.941Z,96484.44
2018-03-16T08:59:57.302Z,96482.77
2018-03-16T09:01:00.617Z,96484.22
2018-03-16T09:02:03.999Z,96485.30
2018-03-16T09:03:07.453Z,96483.95
2018-03-16T09:04:11.023Z,96490.47
2018-03-16T09:05:14.808Z,96489.05
2018-03-16T09:06:18.225Z,96490.92
2018-03-16T09:07:21.628Z,96486.63
2018-03-16T09:08:24.838Z,96489.05
2018-03-16T09:09:28.248Z,96485.84
2018-03-16T09:10:32.536Z,96481.06
2018-03-16T09:11:36.408Z,96481.83
2018-03-16T09:12:39.909Z,96484.05
2018-03-16T09:13:43.318Z,96484.81
2018-03-16T09:14:46.684Z,96486.98
2018-03-16T09:15:50.134Z,96483.89
2018-03-16T09:16:53.419Z,96482.75
2018-03-16T09:17:57.318Z,96484.43
2018-03-16T09:19:00.887Z,96484.83
2018-03-16T09:20:04.195Z,96484.33
2018-03-16T09:21:07.562Z,96487.37
2018-03-16T09:22:10.948Z,96484.65
2018-03-16T09:23:14.337Z,96489.11
2018-03-16T09:24:18.111Z,96487.91
2018-03-16T09:25:21.491Z,96488.83
2018-03-16T09:26:24.915Z,96489.81
2018-03-16T09:27:28.288Z,96487.91
2018-03-16T09:28:31.693Z,96492.53
2018-03-16T09:29:35.274Z,96492.47
2018-03-16T09:30:39.149Z,96494.37
2018-03-16T09:31:42.525Z,96494.87
2018-03-16T09:32:45.891Z,96495.09
2018-03-16T09:33:49.268Z,96496.84
2018-03-16T09:34:52.717Z,96497.98
2018-03-16T09:35:56.086Z,96496.40
2018-03-16T09:36:59.762Z,96502.76
2018-03-16T09:38:03.144Z,96496.66
2018-03-16T09:39:06.565Z,96502.92
2018-03-16T09:40:09.905Z,96509.17
2018-03-16T09:41:13.817Z,96501.67
2018-03-16T09:42:17.781Z,96501.67
2018-03-16T09:43:21.430Z,96502.87
2018-03-16T09:44:24.814Z,96503.42
2018-03-16T09:45:28.287Z,96494.66
2018-03-16T09:46:31.603Z,96503.90
2018-03-16T09:47:34.982Z,96503.20
2018-03-16T09:48:38.238Z,96503.68
2018-03-16T09:49:42.076Z,96506.35
2018-03-16T09:50:45.515Z,96501.78
2018-03-16T09:51:48.769Z,96494.50
2018-03-16T09:52:52.120Z,96504.39
2018-03-16T09:53:55.618Z,96506.62
2018-03-16T09:54:59.012Z,96504.89
2018-03-16T09:56:02.617Z,96503.19
2018-03-16T09:57:06.074Z,96499.81
2018-03-16T09:58:09.442Z,96507.53
2018-03-16T09:59:13.586Z,96511.02
2018-03-16T10:00:16.990Z,96505.36
2018-03-16T10:01:21.273Z,96507.91
2018-03-16T10:02:25.237Z,96506.80
2018-03-16T10:03:28.724Z,96507.22
2018-03-16T10:04:32.160Z,96511.13
2018-03-16T10:05:35.512Z,96510.70
2018-03-16T10:06:38.868Z,96509.22
2018-03-16T10:07:42.274Z,96512.26
2018-03-16T10:08:45.993Z,96512.36
2018-03-16T10:09:49.423Z,96510.53
2018-03-16T10:10:52.795Z,96507.81
2018-03-16T10:11:56.222Z,96509.11
2018-03-16T10:12:59.560Z,96507.31
2018-03-16T10:14:02.874Z,96508.52
2018-03-16T10:15:06.469Z,96506.83
2018-03-16T10:16:09.815Z,96509.77
2018-03-16T10:17:13.205Z,96511.60
2018-03-16T10:18:16.573Z,96509.09
2018-03-16T10:19:20.401Z,96515.14
2018-03-16T10:20:23.770Z,96513.25
2018-03-16T10:21:27.380Z,96511.00
2018-03-16T10:22:30.731Z,96510.84
2018-03-16T10:23:34.582Z,96513.85
2018-03-16T10:24:38.015Z,96518.62
2018-03-16T10:25:41.452Z,96522.53
2018-03-16T10:26:44.875Z,96520.14
2018-03-16T10:27:48.602Z,96518.09
2018-03-16T10:28:51.962Z,96524.55
2018-03-16T10:29:55.340Z,96521.93
2018-03-16T10:30:58.654Z,96523.45
2018-03-16T10:32:02.116Z,96523.52
2018-03-16T10:33:05.439Z,96524.66
2018-03-16T10:34:09.070Z,96526.23
2018-03-16T10:35:12.500Z,96522.17
2018-03-16T10:36:15.880Z,96525.31
2018-03-16T10:37:19.165Z,96528.80
2018-03-16T10:38:22.527Z,96524.17
2018-03-16T10:39:25.749Z,96527.27
2018-03-16T10:40:29.371Z,96532.45
2018-03-16T10:41:32.689Z,96527.97
2018-03-16T10:42:35.904Z,96533.69
2018-03-16T10:43:39.411Z,96532.98
2018-03-16T10:44:42.787Z,96533.44
2018-03-16T10:45:46.136Z,96530.38
2018-03-16T10:46:49.726Z,96536.16
2018-03-16T10:47:53.054Z,96540.72
2018-03-16T10:48:56.401Z,96543.14
2018-03-16T10:49:59.667Z,96541.29
2018-03-16T10:51:02.927Z,96543.19
2018-03-16T10:52:06.133Z,96539.34
2018-03-16T10:53:09.689Z,96549.20
2018-03-16T10:54:12.990Z,96544.25
2018-03-16T10:55:16.314Z,96545.99
2018-03-16T10:56:19.563Z,96550.61
2018-03-16T10:57:22.891Z,96548.33
2018-03-16T10:58:26.158Z,96548.30
2018-03-16T10:59:29.891Z,96542.43
2018-03-16T11:00:36.977Z,96552.16
2018-03-16T11:01:44.069Z,96552.16
2018-03-16T11:02:51.198Z,96549.16
2018-03-16T11:03:55.436Z,96544.52
2018-03-16T11:05:02.446Z,96547.98
2018-03-16T11:06:08.398Z,96546.13
2018-03-16T11:07:15.023Z,96545.75
2018-03-16T11:08:22.140Z,96551.41
2018-03-16T11:09:25.402Z,96551.27
2018-03-16T11:10:29.256Z,96556.53
2018-03-16T11:11:33.110Z,96556.41
2018-03-16T11:12:36.336Z,96555.59
2018-03-16T11:13:39.704Z,96553.63
2018-03-16T11:14:42.867Z,96560.80
2018-03-16T11:15:46.209Z,96557.45
2018-03-16T11:16:49.515Z,96557.67
2018-03-16T11:17:53.247Z,96559.14
2018-03-16T11:18:56.620Z,96549.33
2018-03-16T11:19:59.955Z,96555.66
2018-03-16T11:21:03.219Z,96554.08
2018-03-16T11:22:06.504Z,96550.70
2018-03-16T11:23:09.674Z,96557.50
2018-03-16T11:24:13.241Z,96553.31
2018-03-16T11:25:16.498Z,96555.44
2018-03-16T11:26:19.832Z,96558.81
2018-03-16T11:27:23.183Z,96559.84
2018-03-16T11:28:26.499Z,96561.80
2018-03-16T11:29:29.790Z,96561.72
2018-03-16T11:30:33.453Z,96561.72
2018-03-16T11:31:36.643Z,96559.73
2018-03-16T11:32:40.051Z,96562.70
2018-03-16T11:33:43.320Z,96559.98
2018-03-16T11:34:46.537Z,96558.03
2018-03-16T11:35:49.749Z,96560.74
2018-03-16T11:36:53.410Z,96564.66
2018-03-16T11:37:56.674Z,96565.09
2018-03-16T11:38:59.975Z,96567.70
2018-03-16T11:40:03.314Z,96565.25
2018-03-16T11:41:06.571Z,96573.08
2018-03-16T11:42:09.930Z,96563.11
2018-03-16T11:43:13.713Z,96567.34
2018-03-16T11:44:16.979Z,96557.43
2018-03-16T11:45:20.214Z,96566.23
2018-03-16T11:46:24.168Z,96565.30
2018-03-16T11:47:27.449Z,96563.56
2018-03-16T11:48:30.711Z,96563.73
2018-03-16T11:49:34.399Z,96563.30
2018-03-16T11:50:37.904Z,96567.74
2018-03-16T11:51:41.312Z,96565.52
2018-03-16T11:52:44.838Z,96566.67
2018-03-16T11:53:48.379Z,96562.76
2018-03-16T11:54:51.698Z,96564.16
2018-03-16T11:55:55.585Z,96562.27
2018-03-16T11:56:58.911Z,96567.54
2018-03-16T11:58:02.468Z,96560.97
2018-03-16T11:59:05.817Z,96566.50
2018-03-16T12:00:09.123Z,96566.28
2018-03-16T12:01:12.377Z,96567.21
2018-03-16T12:02:15.909Z,96565.36
2018-03-16T12:03:19.285Z,96568.47
2018-03-16T12:04:22.552Z,96565.64
2018-03-16T12:05:25.817Z,96568.14
2018-03-16T12:06:29.155Z,96573.36
2018-03-16T12:07:32.383Z,96565.49
2018-03-16T12:08:35.993Z,96571.55
2018-03-16T12:09:39.278Z,96569.05
2018-03-16T12:10:42.444Z,96575.79
2018-03-16T12:11:45.932Z,96576.94
2018-03-16T12:12:49.163Z,96580.73
2018-03-16T12:13:52.367Z,96573.38
2018-03-16T12:14:56.102Z,96578.92
2018-03-16T12:15:59.251Z,96582.54
2018-03-16T12:17:02.563Z,96581.83
2018-03-16T12:18:05.861Z,96579.39
2018-03-16T12:19:09.080Z,96578.73
2018-03-16T12:20:12.355Z,96574.30
2018-03-16T12:21:16.420Z,96579.52
2018-03-16T12:22:19.594Z,96583.19
2018-03-16T12:23:23.373Z,96582.72
2018-03-16T12:24:26.526Z,96584.41
2018-03-16T12:25:29.667Z,96574.79
2018-03-16T12:26:32.929Z,96571.86